createdAt,value
2022-07-29T00:01:42.852Z,2.70
2022-07-29T00:04:10.344Z,3.50
2022-07-29T00:06:37.726Z,4.00
2022-07-29T00:09:05.191Z,2.70
2022-07-29T00:11:32.332Z,3.80
2022-07-29T00:13:59.788Z,2.60
2022-07-29T00:16:26.918Z,6.80
2022-07-29T00:18:54.190Z,2.20
2022-07-29T00:21:21.340Z,3.40
2022-07-29T00:23:48.598Z,4.90
2022-07-29T00:26:15.742Z,3.20
2022-07-29T00:28:42.998Z,4.40
2022-07-29T00:31:10.415Z,4.00
2022-07-29T00:33:37.702Z,7.70
2022-07-29T00:36:05.364Z,6.60
2022-07-29T00:38:32.721Z,6.70
2022-07-29T00:40:59.809Z,9.40
2022-07-29T00:43:27.018Z,8.50
2022-07-29T00:45:54.212Z,9.10
2022-07-29T00:48:21.419Z,10.10
2022-07-29T00:50:51.157Z,13.00
2022-07-29T00:53:18.597Z,8.50
2022-07-29T00:55:45.940Z,10.00
2022-07-29T00:58:15.138Z,10.30
2022-07-29T01:00:43.855Z,9.10
2022-07-29T01:03:12.763Z,10.70
2022-07-29T01:05:48.157Z,8.50
2022-07-29T01:08:19.822Z,8.80
2022-07-29T01:10:48.660Z,10.00
2022-07-29T01:13:17.800Z,8.20
2022-07-29T01:15:50.804Z,9.40
2022-07-29T01:18:46.306Z,9.60
2022-07-29T01:21:26.967Z,8.20
2022-07-29T01:24:09.374Z,9.10
2022-07-29T01:26:46.670Z,12.60
2022-07-29T01:29:36.014Z,9.40
2022-07-29T01:32:27.918Z,8.80
2022-07-29T01:35:10.984Z,7.90
2022-07-29T01:37:45.711Z,9.80
2022-07-29T01:40:23.409Z,8.60
2022-07-29T01:42:55.911Z,10.00
2022-07-29T01:45:39.640Z,10.40
2022-07-29T01:48:24.794Z,6.20
2022-07-29T01:52:20.213Z,7.10
2022-07-29T01:54:55.963Z,5.30
2022-07-29T01:57:29.444Z,6.90
2022-07-29T01:59:59.697Z,10.70
2022-07-29T02:02:28.490Z,10.40
2022-07-29T02:04:57.192Z,5.80
2022-07-29T02:07:27.276Z,3.80
2022-07-29T02:09:56.069Z,3.20
2022-07-29T02:12:25.096Z,2.90
2022-07-29T02:14:55.894Z,5.10
2022-07-29T02:17:34.831Z,6.00
2022-07-29T02:20:08.098Z,7.80
2022-07-29T02:22:38.956Z,6.50
2022-07-29T02:25:14.133Z,9.80
2022-07-29T02:27:43.763Z,8.00
2022-07-29T02:30:13.523Z,7.00
2022-07-29T02:32:42.837Z,8.20
2022-07-29T02:35:13.476Z,7.50
2022-07-29T02:37:42.261Z,8.60
2022-07-29T02:40:14.429Z,11.10
2022-07-29T02:42:45.434Z,11.30
2022-07-29T02:45:12.789Z,10.50
2022-07-29T02:47:46.118Z,13.30
2022-07-29T02:50:31.154Z,11.70
2022-07-29T02:53:17.657Z,11.50
2022-07-29T02:55:50.234Z,9.70
2022-07-29T02:58:29.773Z,10.60
2022-07-29T03:00:59.648Z,10.90
2022-07-29T03:03:33.165Z,9.20
2022-07-29T03:06:02.897Z,6.90
2022-07-29T03:08:32.239Z,5.10
2022-07-29T03:11:01.882Z,6.60
2022-07-29T03:13:30.632Z,6.50
2022-07-29T03:15:59.064Z,4.90
2022-07-29T03:18:27.412Z,3.40
2022-07-29T03:20:55.126Z,3.80
2022-07-29T03:23:24.955Z,4.00
2022-07-29T03:25:52.894Z,5.00
2022-07-29T03:28:20.761Z,4.80
2022-07-29T03:30:50.091Z,7.10
2022-07-29T03:33:17.618Z,2.70
2022-07-29T03:35:45.076Z,4.40
2022-07-29T03:38:12.223Z,3.00
2022-07-29T03:40:45.436Z,5.00
2022-07-29T03:43:14.651Z,6.70
2022-07-29T03:45:46.012Z,5.00
2022-07-29T03:50:42.821Z,5.10
2022-07-29T03:53:10.427Z,7.60
2022-07-29T03:55:42.649Z,7.50
2022-07-29T03:58:12.033Z,7.90
2022-07-29T04:00:40.025Z,6.50
2022-07-29T04:03:10.692Z,5.70
2022-07-29T04:05:38.867Z,5.70
2022-07-29T04:08:06.692Z,4.80
2022-07-29T04:10:35.724Z,6.40
2022-07-29T04:13:03.451Z,3.80
2022-07-29T04:15:31.748Z,6.70
2022-07-29T04:18:00.503Z,9.50
2022-07-29T04:20:28.186Z,3.10
2022-07-29T04:22:55.632Z,5.30
2022-07-29T04:25:22.889Z,6.80
2022-07-29T04:28:02.066Z,4.70
2022-07-29T04:30:30.761Z,4.60
2022-07-29T04:32:57.991Z,3.40
2022-07-29T04:35:25.512Z,8.10
2022-07-29T04:37:52.968Z,4.50
2022-07-29T04:40:20.466Z,5.50
2022-07-29T04:42:47.849Z,3.40
2022-07-29T04:45:16.107Z,2.90
2022-07-29T04:47:43.517Z,4.50
2022-07-29T04:50:11.632Z,2.90
2022-07-29T04:52:39.041Z,6.50
2022-07-29T04:55:08.164Z,7.80
2022-07-29T04:57:35.387Z,4.30
2022-07-29T05:00:03.055Z,4.30
2022-07-29T05:02:30.268Z,5.10
2022-07-29T05:04:57.451Z,6.40
2022-07-29T05:07:24.704Z,5.30
2022-07-29T05:09:51.957Z,7.60
2022-07-29T05:12:19.105Z,4.30
2022-07-29T05:14:46.192Z,4.60
2022-07-29T05:17:13.405Z,5.50
2022-07-29T05:19:40.758Z,5.00
2022-07-29T05:22:08.013Z,5.60
2022-07-29T05:24:35.084Z,6.00
2022-07-29T05:27:02.312Z,5.10
2022-07-29T05:29:42.885Z,3.30
2022-07-29T05:32:13.353Z,3.50
2022-07-29T05:34:50.460Z,3.40
2022-07-29T05:37:20.969Z,3.50
2022-07-29T05:39:56.388Z,4.20
2022-07-29T05:42:25.554Z,4.90
2022-07-29T05:44:53.227Z,6.60
2022-07-29T05:47:20.515Z,5.00
2022-07-29T05:49:48.235Z,5.70
2022-07-29T05:52:16.408Z,6.20
2022-07-29T05:54:43.967Z,4.50
2022-07-29T05:57:23.303Z,7.30
2022-07-29T05:59:52.090Z,6.30
2022-07-29T06:02:19.678Z,6.80
2022-07-29T06:04:46.868Z,6.10
2022-07-29T06:07:14.463Z,6.20
2022-07-29T06:09:41.713Z,6.40
2022-07-29T06:12:09.372Z,7.60
2022-07-29T06:14:36.829Z,4.00
2022-07-29T06:17:04.082Z,5.20
2022-07-29T06:19:31.371Z,4.80
2022-07-29T06:21:58.632Z,5.30
2022-07-29T06:24:25.839Z,4.30
2022-07-29T06:26:53.091Z,5.80
2022-07-29T06:29:20.342Z,5.20
2022-07-29T06:31:47.494Z,5.00
2022-07-29T06:34:14.988Z,5.60
2022-07-29T06:36:42.515Z,4.50
2022-07-29T06:39:11.725Z,5.80
2022-07-29T06:41:39.571Z,3.30
2022-07-29T06:44:10.408Z,2.60
2022-07-29T06:46:37.833Z,3.40
2022-07-29T06:49:06.102Z,7.90
2022-07-29T06:51:33.393Z,7.50
2022-07-29T06:54:02.797Z,3.00
2022-07-29T06:56:39.896Z,4.30
2022-07-29T06:59:09.792Z,2.40
2022-07-29T07:01:39.155Z,4.00
2022-07-29T07:04:07.162Z,4.50
2022-07-29T07:06:34.311Z,4.20
2022-07-29T07:09:01.873Z,5.40
2022-07-29T07:11:29.124Z,3.10
2022-07-29T07:14:00.790Z,4.60
2022-07-29T07:16:30.771Z,5.10
2022-07-29T07:18:58.260Z,8.00
2022-07-29T07:21:25.504Z,6.40
2022-07-29T07:23:52.758Z,4.30
2022-07-29T07:26:20.017Z,3.70
2022-07-29T07:28:47.261Z,2.80
2022-07-29T07:31:15.435Z,4.80
2022-07-29T07:33:42.791Z,4.10
2022-07-29T07:36:10.257Z,4.90
2022-07-29T07:38:37.517Z,4.00
2022-07-29T07:41:05.285Z,7.20
2022-07-29T07:43:32.551Z,6.20
2022-07-29T07:45:59.736Z,2.80
2022-07-29T07:48:27.020Z,5.60
2022-07-29T07:50:54.108Z,2.10
2022-07-29T07:53:22.203Z,3.40
2022-07-29T07:58:36.551Z,6.20
2022-07-29T08:01:04.177Z,4.20
2022-07-29T08:03:31.526Z,5.30
2022-07-29T08:05:58.920Z,3.80
2022-07-29T08:08:26.333Z,7.30
2022-07-29T08:10:53.486Z,3.00
2022-07-29T08:13:31.509Z,4.80
2022-07-29T08:16:01.250Z,3.10
2022-07-29T08:18:30.602Z,5.80
2022-07-29T08:20:58.056Z,4.80
2022-07-29T08:23:25.553Z,3.50
2022-07-29T08:25:54.789Z,3.60
2022-07-29T08:28:25.756Z,3.60
2022-07-29T08:30:53.928Z,3.80
2022-07-29T08:33:21.176Z,3.90
2022-07-29T08:35:48.246Z,5.60
2022-07-29T08:38:15.475Z,4.40
2022-07-29T08:40:42.935Z,3.40
2022-07-29T08:43:10.390Z,3.40
2022-07-29T08:45:48.087Z,3.70
2022-07-29T08:48:21.690Z,5.40
2022-07-29T08:50:54.003Z,4.40
2022-07-29T08:53:22.909Z,7.60
2022-07-29T08:55:51.841Z,3.70
2022-07-29T08:58:23.065Z,4.50
2022-07-29T09:00:55.291Z,3.90
2022-07-29T09:03:31.762Z,3.70
2022-07-29T09:06:00.522Z,4.20
2022-07-29T09:08:28.172Z,4.30
2022-07-29T09:10:57.165Z,3.00
2022-07-29T09:13:24.417Z,4.70
2022-07-29T09:15:51.717Z,2.90
2022-07-29T09:18:37.257Z,4.30
2022-07-29T09:21:25.023Z,3.60
2022-07-29T09:24:18.658Z,2.50
2022-07-29T09:26:47.446Z,4.60
2022-07-29T09:29:24.441Z,3.50
2022-07-29T09:31:54.052Z,5.20
2022-07-29T09:34:27.094Z,3.00
2022-07-29T09:36:55.499Z,5.50
2022-07-29T09:39:28.895Z,2.60
2022-07-29T09:41:58.581Z,4.00
2022-07-29T09:44:26.878Z,3.40
2022-07-29T09:47:00.669Z,7.30
2022-07-29T09:49:28.084Z,3.30
2022-07-29T09:52:10.242Z,5.60
2022-07-29T09:54:38.108Z,13.60
2022-07-29T09:57:30.613Z,4.10
2022-07-29T10:00:04.498Z,5.00
2022-07-29T10:02:40.928Z,6.90
2022-07-29T10:05:18.280Z,4.90
2022-07-29T10:07:57.874Z,2.70
2022-07-29T10:10:26.849Z,4.30
2022-07-29T10:12:54.014Z,4.30
2022-07-29T10:15:23.607Z,3.50
2022-07-29T10:17:52.838Z,4.10
2022-07-29T10:20:21.859Z,3.50
2022-07-29T10:22:53.481Z,2.50
2022-07-29T10:25:23.102Z,4.30
2022-07-29T10:27:54.714Z,4.50
2022-07-29T10:30:23.355Z,4.60
2022-07-29T10:33:08.995Z,3.20
2022-07-29T10:36:03.666Z,4.90
2022-07-29T10:38:46.188Z,6.70
2022-07-29T10:41:27.469Z,7.50
2022-07-29T10:44:08.032Z,5.10
2022-07-29T10:46:38.161Z,3.80
2022-07-29T10:49:07.012Z,2.90
2022-07-29T10:51:54.454Z,3.10
2022-07-29T10:54:47.371Z,6.20
2022-07-29T10:57:54.270Z,5.50
2022-07-29T11:00:18.688Z,3.80
2022-07-29T11:02:50.052Z,5.70
2022-07-29T11:05:22.411Z,7.10
2022-07-29T11:08:19.755Z,4.50
2022-07-29T11:10:53.632Z,4.50
2022-07-29T11:13:48.967Z,2.60
2022-07-29T11:16:16.774Z,9.40
2022-07-29T11:19:16.052Z,3.50
2022-07-29T11:22:05.454Z,5.30
2022-07-29T11:24:35.169Z,4.70
2022-07-29T11:27:21.148Z,7.00
2022-07-29T11:29:55.810Z,4.20
2022-07-29T11:32:25.257Z,3.40
2022-07-29T11:35:38.500Z,3.00
2022-07-29T11:38:28.982Z,5.90
2022-07-29T11:41:19.030Z,3.50
2022-07-29T11:43:50.710Z,5.60
2022-07-29T11:46:43.164Z,4.80
2022-07-29T11:49:11.967Z,4.90
2022-07-29T11:51:48.715Z,6.40
2022-07-29T11:54:27.634Z,3.30
2022-07-29T11:56:56.041Z,3.00
2022-07-29T11:59:23.795Z,4.60
2022-07-29T12:02:33.272Z,4.40
2022-07-29T12:04:53.732Z,5.20
2022-07-29T12:07:35.428Z,3.60
2022-07-29T12:10:04.822Z,3.70
2022-07-29T12:12:35.680Z,4.00
2022-07-29T12:15:39.178Z,4.60
2022-07-29T12:18:19.315Z,3.80
2022-07-29T12:20:48.973Z,4.20
2022-07-29T12:23:18.850Z,2.90
2022-07-29T12:25:49.883Z,2.30
2022-07-29T12:28:26.579Z,3.80
2022-07-29T12:30:55.133Z,4.70
2022-07-29T12:33:22.362Z,3.20
2022-07-29T12:36:07.505Z,4.40
2022-07-29T12:38:38.093Z,2.50
2022-07-29T12:41:05.546Z,5.80
2022-07-29T12:43:33.103Z,4.80
2022-07-29T12:46:14.081Z,3.90
2022-07-29T12:48:43.374Z,4.90
2022-07-29T12:51:12.985Z,5.10
2022-07-29T12:53:40.691Z,5.50
2022-07-29T12:56:40.478Z,4.40
2022-07-29T12:59:15.145Z,5.40
2022-07-29T13:01:42.554Z,4.30
2022-07-29T13:04:10.105Z,5.20
2022-07-29T13:06:45.780Z,4.00
2022-07-29T13:09:18.984Z,3.30
2022-07-29T13:11:48.764Z,4.50
2022-07-29T13:14:43.248Z,7.80
2022-07-29T13:17:11.981Z,4.30
2022-07-29T13:19:45.432Z,2.50
2022-07-29T13:22:15.140Z,4.10
2022-07-29T13:24:54.273Z,3.20
2022-07-29T13:27:27.094Z,5.10
2022-07-29T13:29:57.709Z,5.00
2022-07-29T13:32:28.421Z,2.80
2022-07-29T13:37:24.149Z,2.50
2022-07-29T13:39:53.153Z,3.40
2022-07-29T13:42:21.011Z,2.70
2022-07-29T13:44:49.900Z,7.40
2022-07-29T13:47:17.358Z,4.60
2022-07-29T13:49:44.653Z,4.20
2022-07-29T13:52:12.003Z,2.90
2022-07-29T13:54:42.792Z,2.60
2022-07-29T13:57:14.434Z,2.90
2022-07-29T13:59:43.141Z,6.10
2022-07-29T14:02:12.134Z,3.40
2022-07-29T14:04:43.009Z,7.90
2022-07-29T14:07:11.245Z,3.00
2022-07-29T14:09:43.925Z,2.80
2022-07-29T14:12:11.251Z,5.60
2022-07-29T14:14:38.531Z,5.70
2022-07-29T14:17:07.909Z,10.20
2022-07-29T14:19:36.847Z,4.60
2022-07-29T14:22:06.328Z,4.60
2022-07-29T14:24:37.219Z,2.70
2022-07-29T14:27:08.829Z,3.60
2022-07-29T14:29:38.344Z,3.70
2022-07-29T14:32:11.596Z,4.60
2022-07-29T14:34:39.690Z,2.50
2022-07-29T14:37:07.873Z,11.30
2022-07-29T14:39:42.821Z,5.30
2022-07-29T14:42:12.798Z,3.00
2022-07-29T14:44:43.238Z,3.80
2022-07-29T14:47:12.026Z,2.50
2022-07-29T14:49:39.176Z,4.20
2022-07-29T14:52:06.325Z,2.80
2022-07-29T14:54:33.577Z,4.30
2022-07-29T14:57:00.781Z,6.60
2022-07-29T14:59:28.392Z,3.00
2022-07-29T15:01:56.190Z,4.70
2022-07-29T15:04:24.021Z,4.90
2022-07-29T15:06:51.375Z,2.10
2022-07-29T15:09:19.247Z,2.10
2022-07-29T15:11:46.596Z,3.10
2022-07-29T15:14:14.050Z,5.30
2022-07-29T15:16:43.977Z,2.90
2022-07-29T15:19:14.495Z,3.10
2022-07-29T15:21:48.696Z,3.00
2022-07-29T15:24:17.846Z,3.00
2022-07-29T15:26:45.774Z,4.40
2022-07-29T15:29:13.348Z,3.60
2022-07-29T15:31:41.379Z,3.10
2022-07-29T15:34:09.071Z,3.00
2022-07-29T15:36:51.418Z,2.50
2022-07-29T15:39:21.443Z,2.70
2022-07-29T15:41:49.172Z,4.70
2022-07-29T15:44:16.405Z,5.10
2022-07-29T15:47:02.527Z,3.40
2022-07-29T15:49:48.560Z,7.30
2022-07-29T15:52:26.173Z,3.60
2022-07-29T15:54:57.826Z,5.30
2022-07-29T15:59:52.965Z,5.50
2022-07-29T16:02:20.333Z,3.60
2022-07-29T16:04:47.777Z,7.70
2022-07-29T16:07:16.099Z,5.00
2022-07-29T16:09:47.057Z,5.10
2022-07-29T16:12:18.440Z,6.50
2022-07-29T16:14:45.904Z,5.10
2022-07-29T16:17:14.965Z,4.50
2022-07-29T16:19:43.760Z,4.80
2022-07-29T16:22:11.641Z,5.50
2022-07-29T16:24:39.714Z,5.90
2022-07-29T16:27:07.790Z,6.20
2022-07-29T16:29:37.445Z,6.90
2022-07-29T16:32:06.429Z,9.00
2022-07-29T16:34:33.993Z,7.20
2022-07-29T16:37:01.588Z,6.20
2022-07-29T16:39:29.779Z,7.20
2022-07-29T16:42:00.205Z,6.50
2022-07-29T16:44:28.510Z,10.30
2022-07-29T16:46:58.907Z,6.80
2022-07-29T16:49:27.771Z,6.50
2022-07-29T16:51:55.156Z,7.30
2022-07-29T16:54:22.511Z,10.00
2022-07-29T16:56:49.763Z,6.50
2022-07-29T16:59:17.014Z,7.10
2022-07-29T17:01:44.557Z,8.90
2022-07-29T17:04:15.114Z,8.90
2022-07-29T17:06:42.864Z,6.10
2022-07-29T17:09:12.075Z,8.60
2022-07-29T17:11:52.967Z,6.90
2022-07-29T17:14:25.271Z,7.10
2022-07-29T17:17:01.147Z,6.90
2022-07-29T17:19:32.524Z,6.50
2022-07-29T17:22:10.122Z,6.40
2022-07-29T17:24:40.921Z,7.00
2022-07-29T17:27:09.630Z,8.20
2022-07-29T17:29:37.281Z,7.10
2022-07-29T17:32:07.686Z,5.80
2022-07-29T17:34:36.545Z,7.40
2022-07-29T17:37:05.704Z,8.30
2022-07-29T17:39:34.282Z,9.10
2022-07-29T17:42:02.910Z,7.80
2022-07-29T17:44:30.937Z,8.10
2022-07-29T17:47:00.024Z,5.90
2022-07-29T17:49:28.417Z,8.20
2022-07-29T17:52:00.474Z,7.00
2022-07-29T17:54:28.547Z,6.30
2022-07-29T17:56:56.146Z,5.80
2022-07-29T17:59:23.664Z,6.80
2022-07-29T18:01:50.983Z,6.80
2022-07-29T18:04:21.196Z,5.80
2022-07-29T18:06:48.389Z,8.70
2022-07-29T18:09:15.643Z,7.30
2022-07-29T18:11:44.371Z,8.60
2022-07-29T18:14:13.729Z,6.80
2022-07-29T18:16:41.359Z,6.40
2022-07-29T18:19:08.541Z,6.40
2022-07-29T18:21:43.631Z,10.40
2022-07-29T18:24:27.754Z,6.10
2022-07-29T18:26:56.733Z,7.60
2022-07-29T18:29:24.173Z,7.40
2022-07-29T18:31:51.426Z,7.10
2022-07-29T18:34:18.685Z,7.60
2022-07-29T18:36:46.338Z,7.60
2022-07-29T18:39:20.314Z,6.70
2022-07-29T18:41:51.290Z,7.10
2022-07-29T18:44:22.703Z,8.50
2022-07-29T18:46:52.048Z,7.20
2022-07-29T18:49:19.781Z,7.60
2022-07-29T18:51:47.567Z,6.80
2022-07-29T18:54:15.432Z,7.80
2022-07-29T18:56:42.629Z,6.80
2022-07-29T18:59:10.673Z,8.60
2022-07-29T19:01:38.502Z,5.10
2022-07-29T19:04:05.977Z,7.30
2022-07-29T19:06:33.066Z,10.50
2022-07-29T19:09:00.419Z,7.50
2022-07-29T19:11:27.570Z,9.40
2022-07-29T19:13:54.781Z,6.30
2022-07-29T19:16:22.090Z,9.30
2022-07-29T19:18:49.388Z,7.00
2022-07-29T19:21:16.540Z,8.10
2022-07-29T19:24:00.684Z,7.40
2022-07-29T19:26:31.930Z,5.90
2022-07-29T19:28:59.898Z,9.50
2022-07-29T19:31:27.233Z,7.10
2022-07-29T19:33:54.505Z,7.80
2022-07-29T19:36:21.762Z,7.40
2022-07-29T19:38:48.907Z,7.10
2022-07-29T19:41:17.284Z,5.20
2022-07-29T19:43:50.354Z,7.50
2022-07-29T19:46:21.856Z,10.10
2022-07-29T19:48:49.899Z,10.40
2022-07-29T19:51:17.772Z,6.60
2022-07-29T19:53:45.013Z,7.20
2022-07-29T19:56:12.163Z,8.70
2022-07-29T19:58:41.221Z,6.90
2022-07-29T20:01:10.246Z,5.60
2022-07-29T20:03:40.342Z,9.90
2022-07-29T20:06:08.081Z,6.20
2022-07-29T20:08:35.492Z,6.60
2022-07-29T20:11:03.604Z,9.10
2022-07-29T20:13:33.184Z,5.60
2022-07-29T20:16:01.087Z,8.30
2022-07-29T20:18:28.510Z,10.20
2022-07-29T20:20:57.798Z,10.00
2022-07-29T20:23:25.043Z,6.20
2022-07-29T20:25:52.546Z,7.50
2022-07-29T20:28:21.289Z,5.10
2022-07-29T20:30:48.577Z,6.20
2022-07-29T20:33:16.555Z,5.30
2022-07-29T20:35:44.072Z,6.80
2022-07-29T20:38:15.010Z,6.20
2022-07-29T20:40:45.252Z,6.20
2022-07-29T20:43:12.838Z,6.70
2022-07-29T20:45:40.244Z,6.40
2022-07-29T20:48:08.210Z,6.10
2022-07-29T20:50:35.885Z,9.30
2022-07-29T20:53:03.239Z,6.50
2022-07-29T20:55:32.174Z,9.50
2022-07-29T20:57:59.428Z,6.30
2022-07-29T21:00:26.745Z,6.80
2022-07-29T21:02:54.042Z,8.40
2022-07-29T21:05:21.436Z,7.40
2022-07-29T21:07:48.630Z,5.90
2022-07-29T21:10:18.465Z,8.00
2022-07-29T21:12:49.236Z,8.30
2022-07-29T21:15:16.553Z,5.30
2022-07-29T21:17:47.371Z,8.40
2022-07-29T21:20:16.778Z,6.90
2022-07-29T21:22:44.799Z,7.20
2022-07-29T21:25:12.458Z,8.30
2022-07-29T21:27:58.458Z,6.90
2022-07-29T21:30:25.701Z,6.50
2022-07-29T21:32:53.017Z,6.00
2022-07-29T21:35:35.899Z,6.90
2022-07-29T21:38:07.527Z,8.60
2022-07-29T21:40:34.677Z,8.30
2022-07-29T21:43:01.931Z,6.40
2022-07-29T21:45:29.286Z,7.50
2022-07-29T21:47:56.481Z,9.50
2022-07-29T21:50:23.685Z,7.00
2022-07-29T21:52:50.834Z,8.70
2022-07-29T21:55:19.261Z,8.30
2022-07-29T21:57:46.671Z,7.20
2022-07-29T22:00:17.240Z,5.50
2022-07-29T22:02:45.271Z,6.50
2022-07-29T22:05:13.594Z,6.30
2022-07-29T22:07:55.761Z,11.20
2022-07-29T22:10:26.196Z,9.60
2022-07-29T22:12:54.909Z,11.20
2022-07-29T22:15:22.663Z,10.40
2022-07-29T22:17:50.840Z,10.00
2022-07-29T22:20:18.154Z,12.50
2022-07-29T22:22:45.349Z,12.20
2022-07-29T22:25:12.494Z,10.20
2022-07-29T22:27:40.421Z,10.30
2022-07-29T22:30:08.433Z,9.40
2022-07-29T22:32:36.300Z,13.30
2022-07-29T22:35:04.021Z,15.00
2022-07-29T22:37:31.380Z,10.70
2022-07-29T22:39:58.629Z,10.20
2022-07-29T22:42:25.879Z,8.10
2022-07-29T22:44:53.029Z,5.80
2022-07-29T22:47:46.208Z,6.20
2022-07-29T22:50:08.219Z,10.70
2022-07-29T22:52:35.473Z,13.00
2022-07-29T22:55:04.247Z,6.70
2022-07-29T22:57:31.555Z,5.50
2022-07-29T23:00:01.834Z,8.10
2022-07-29T23:02:29.322Z,7.20
2022-07-29T23:04:57.364Z,6.80
2022-07-29T23:07:24.825Z,5.60
2022-07-29T23:09:52.219Z,10.60
2022-07-29T23:12:19.427Z,7.20
2022-07-29T23:14:46.782Z,4.40
2022-07-29T23:17:14.127Z,6.30
2022-07-29T23:19:41.503Z,6.60
2022-07-29T23:22:08.645Z,8.90
2022-07-29T23:24:35.787Z,6.90
2022-07-29T23:27:03.249Z,4.80
2022-07-29T23:29:34.986Z,7.60
2022-07-29T23:32:03.959Z,5.00
2022-07-29T23:34:31.147Z,6.90
2022-07-29T23:36:58.730Z,8.20
2022-07-29T23:39:26.265Z,5.60
2022-07-29T23:41:53.766Z,6.90
2022-07-29T23:44:21.130Z,5.30
2022-07-29T23:46:48.347Z,5.30
2022-07-29T23:49:15.802Z,6.50
2022-07-29T23:51:43.048Z,6.80
2022-07-29T23:54:10.288Z,5.90
2022-07-29T23:56:37.437Z,5.70
2022-07-29T23:59:05.921Z,5.70
